sensor_id;sensor_type;location;lat;lon;timestamp;pressure;altitude;pressure_sealevel;temperature;humidity
37206;BME280;23099;42.636;23.198;2023-03-14T00:00:57;92151.28;;;0.51;72.84
37206;BME280;23099;42.636;23.198;2023-03-14T00:03:24;92141.75;;;0.55;73.32
37206;BME280;23099;42.636;23.198;2023-03-14T00:05:51;92138.94;;;0.51;73.45
37206;BME280;23099;42.636;23.198;2023-03-14T00:08:17;92138.72;;;0.48;73.16
37206;BME280;23099;42.636;23.198;2023-03-14T00:10:46;92126.06;;;0.50;73.10
37206;BME280;23099;42.636;23.198;2023-03-14T00:13:13;92127.34;;;0.52;72.59
37206;BME280;23099;42.636;23.198;2023-03-14T00:15:41;92121.59;;;0.50;72.10
37206;BME280;23099;42.636;23.198;2023-03-14T00:18:07;92123.94;;;0.52;73.09
37206;BME280;23099;42.636;23.198;2023-03-14T00:20:34;92115.25;;;0.51;73.67
37206;BME280;23099;42.636;23.198;2023-03-14T00:23:01;92119.25;;;0.49;73.56
37206;BME280;23099;42.636;23.198;2023-03-14T00:25:28;92108.38;;;0.42;70.58
37206;BME280;23099;42.636;23.198;2023-03-14T00:27:54;92105.34;;;0.34;69.56
37206;BME280;23099;42.636;23.198;2023-03-14T00:30:21;92103.00;;;0.33;70.60
37206;BME280;23099;42.636;23.198;2023-03-14T00:32:49;92105.66;;;0.33;72.87
37206;BME280;23099;42.636;23.198;2023-03-14T00:35:16;92100.81;;;0.26;72.94
37206;BME280;23099;42.636;23.198;2023-03-14T00:37:43;92096.91;;;0.24;73.17
37206;BME280;23099;42.636;23.198;2023-03-14T00:40:10;92093.00;;;0.21;72.83
37206;BME280;23099;42.636;23.198;2023-03-14T00:42:37;92090.19;;;0.18;73.50
37206;BME280;23099;42.636;23.198;2023-03-14T00:45:04;92087.06;;;0.16;75.57
37206;BME280;23099;42.636;23.198;2023-03-14T00:47:32;92090.03;;;0.14;75.98
37206;BME280;23099;42.636;23.198;2023-03-14T00:50:00;92094.19;;;0.02;76.27
37206;BME280;23099;42.636;23.198;2023-03-14T00:52:27;92094.97;;;0.02;75.78
37206;BME280;23099;42.636;23.198;2023-03-14T00:54:54;92094.88;;;0.07;76.13
37206;BME280;23099;42.636;23.198;2023-03-14T00:57:21;92091.38;;;0.12;74.41
37206;BME280;23099;42.636;23.198;2023-03-14T00:59:47;92089.91;;;0.06;74.81
37206;BME280;23099;42.636;23.198;2023-03-14T01:02:14;92078.75;;;0.00;73.91
37206;BME280;23099;42.636;23.198;2023-03-14T01:04:40;92073.78;;;-0.02;74.72
37206;BME280;23099;42.636;23.198;2023-03-14T01:07:09;92079.09;;;0.07;76.57
37206;BME280;23099;42.636;23.198;2023-03-14T01:09:36;92071.81;;;0.04;76.43
37206;BME280;23099;42.636;23.198;2023-03-14T01:12:03;92070.53;;;0.02;74.48
37206;BME280;23099;42.636;23.198;2023-03-14T01:14:30;92070.44;;;0.07;75.71
37206;BME280;23099;42.636;23.198;2023-03-14T01:16:56;92069.47;;;0.03;75.64
37206;BME280;23099;42.636;23.198;2023-03-14T01:19:26;92061.88;;;0.01;75.34
37206;BME280;23099;42.636;23.198;2023-03-14T01:21:53;92070.25;;;0.03;76.40
37206;BME280;23099;42.636;23.198;2023-03-14T01:24:21;92057.31;;;-0.07;75.28
37206;BME280;23099;42.636;23.198;2023-03-14T01:26:48;92062.19;;;-0.14;76.41
37206;BME280;23099;42.636;23.198;2023-03-14T01:29:14;92048.88;;;-0.18;76.39
37206;BME280;23099;42.636;23.198;2023-03-14T01:31:41;92049.81;;;-0.14;76.63
37206;BME280;23099;42.636;23.198;2023-03-14T01:34:08;92050.72;;;-0.18;77.65
37206;BME280;23099;42.636;23.198;2023-03-14T01:36:35;92051.59;;;-0.23;77.21
37206;BME280;23099;42.636;23.198;2023-03-14T01:39:02;92049.66;;;-0.31;77.64
37206;BME280;23099;42.636;23.198;2023-03-14T01:41:30;92047.31;;;-0.32;79.50
37206;BME280;23099;42.636;23.198;2023-03-14T01:43:57;92038.88;;;-0.29;79.90
37206;BME280;23099;42.636;23.198;2023-03-14T01:49:24;92041.66;;;-0.26;79.55
37206;BME280;23099;42.636;23.198;2023-03-14T01:51:56;92036.63;;;-0.22;77.59
37206;BME280;23099;42.636;23.198;2023-03-14T01:54:27;92037.78;;;-0.15;76.89
37206;BME280;23099;42.636;23.198;2023-03-14T01:56:59;92033.91;;;-0.17;78.48
37206;BME280;23099;42.636;23.198;2023-03-14T01:59:29;92025.41;;;-0.28;77.96
37206;BME280;23099;42.636;23.198;2023-03-14T02:01:56;92034.84;;;-0.27;78.43
37206;BME280;23099;42.636;23.198;2023-03-14T02:04:23;92021.72;;;-0.41;78.31
37206;BME280;23099;42.636;23.198;2023-03-14T02:07:00;92026.59;;;-0.48;78.47
37206;BME280;23099;42.636;23.198;2023-03-14T02:09:30;92023.97;;;-0.48;78.28
37206;BME280;23099;42.636;23.198;2023-03-14T02:11:59;92021.34;;;-0.48;78.23
37206;BME280;23099;42.636;23.198;2023-03-14T02:14:31;92023.22;;;-0.48;78.59
37206;BME280;23099;42.636;23.198;2023-03-14T02:16:58;92013.06;;;-0.41;79.37
37206;BME280;23099;42.636;23.198;2023-03-14T02:19:33;92013.28;;;-0.38;78.43
37206;BME280;23099;42.636;23.198;2023-03-14T02:22:05;92009.97;;;-0.29;78.68
37206;BME280;23099;42.636;23.198;2023-03-14T02:24:40;92004.31;;;-0.23;79.55
37206;BME280;23099;42.636;23.198;2023-03-14T02:27:12;91997.41;;;-0.19;78.77
37206;BME280;23099;42.636;23.198;2023-03-14T02:29:43;92002.16;;;-0.07;77.84
37206;BME280;23099;42.636;23.198;2023-03-14T02:32:13;92013.25;;;-0.10;78.23
37206;BME280;23099;42.636;23.198;2023-03-14T02:34:43;92016.78;;;-0.15;78.37
37206;BME280;23099;42.636;23.198;2023-03-14T02:37:13;92013.75;;;-0.22;78.75
37206;BME280;23099;42.636;23.198;2023-03-14T02:39:44;92022.69;;;-0.23;77.50
37206;BME280;23099;42.636;23.198;2023-03-14T02:42:13;92026.09;;;-0.22;78.25
37206;BME280;23099;42.636;23.198;2023-03-14T02:44:52;92035.25;;;-0.20;77.73
37206;BME280;23099;42.636;23.198;2023-03-14T02:47:22;92037.03;;;-0.29;78.12
37206;BME280;23099;42.636;23.198;2023-03-14T02:49:57;92029.22;;;-0.48;78.42
37206;BME280;23099;42.636;23.198;2023-03-14T02:52:24;92033.50;;;-0.52;78.92
37206;BME280;23099;42.636;23.198;2023-03-14T02:54:51;92035.25;;;-0.75;79.59
37206;BME280;23099;42.636;23.198;2023-03-14T02:57:19;92033.19;;;-0.78;79.95
37206;BME280;23099;42.636;23.198;2023-03-14T02:59:46;92036.38;;;-0.81;80.45
37206;BME280;23099;42.636;23.198;2023-03-14T03:02:12;92043.56;;;-0.86;80.76
37206;BME280;23099;42.636;23.198;2023-03-14T03:04:39;92035.13;;;-0.83;80.92
37206;BME280;23099;42.636;23.198;2023-03-14T03:07:06;92032.31;;;-0.87;81.80
37206;BME280;23099;42.636;23.198;2023-03-14T03:09:33;92031.84;;;-0.75;81.91
37206;BME280;23099;42.636;23.198;2023-03-14T03:11:59;92026.41;;;-0.65;81.91
37206;BME280;23099;42.636;23.198;2023-03-14T03:14:27;92027.38;;;-0.61;81.88
37206;BME280;23099;42.636;23.198;2023-03-14T03:16:54;92032.22;;;-0.54;81.88
37206;BME280;23099;42.636;23.198;2023-03-14T03:19:21;92023.88;;;-0.56;81.16
37206;BME280;23099;42.636;23.198;2023-03-14T03:21:47;92017.47;;;-0.50;81.29
37206;BME280;23099;42.636;23.198;2023-03-14T03:24:14;92016.78;;;-0.42;81.63
37206;BME280;23099;42.636;23.198;2023-03-14T03:26:41;92016.19;;;-0.39;81.40
37206;BME280;23099;42.636;23.198;2023-03-14T03:29:08;92023.41;;;-0.45;80.58
37206;BME280;23099;42.636;23.198;2023-03-14T03:31:38;92018.16;;;-0.58;79.92
37206;BME280;23099;42.636;23.198;2023-03-14T03:34:04;92018.53;;;-0.65;81.01
37206;BME280;23099;42.636;23.198;2023-03-14T03:36:31;92015.31;;;-0.62;80.33
37206;BME280;23099;42.636;23.198;2023-03-14T03:38:58;92015.13;;;-0.65;81.11
37206;BME280;23099;42.636;23.198;2023-03-14T03:41:25;92015.03;;;-0.74;80.41
37206;BME280;23099;42.636;23.198;2023-03-14T03:43:51;92015.69;;;-0.82;81.25
37206;BME280;23099;42.636;23.198;2023-03-14T03:46:19;92015.09;;;-0.93;81.73
37206;BME280;23099;42.636;23.198;2023-03-14T03:48:47;92022.19;;;-0.93;82.21
37206;BME280;23099;42.636;23.198;2023-03-14T03:51:15;92032.31;;;-0.87;82.13
37206;BME280;23099;42.636;23.198;2023-03-14T03:53:42;92024.22;;;-1.04;82.56
37206;BME280;23099;42.636;23.198;2023-03-14T03:56:09;92025.88;;;-0.94;82.95
37206;BME280;23099;42.636;23.198;2023-03-14T03:58:36;92034.06;;;-0.82;82.44
37206;BME280;23099;42.636;23.198;2023-03-14T04:01:04;92027.34;;;-0.88;82.91
37206;BME280;23099;42.636;23.198;2023-03-14T04:03:32;92026.38;;;-0.92;82.67
37206;BME280;23099;42.636;23.198;2023-03-14T04:06:01;92025.94;;;-0.99;83.23
37206;BME280;23099;42.636;23.198;2023-03-14T04:08:28;92031.56;;;-1.20;83.24
37206;BME280;23099;42.636;23.198;2023-03-14T04:10:56;92022.25;;;-1.12;83.65
37206;BME280;23099;42.636;23.198;2023-03-14T04:13:23;92027.69;;;-1.09;83.71
37206;BME280;23099;42.636;23.198;2023-03-14T04:15:50;92017.31;;;-1.00;83.51
37206;BME280;23099;42.636;23.198;2023-03-14T04:18:17;92015.09;;;-0.93;83.41
37206;BME280;23099;42.636;23.198;2023-03-14T04:20:44;92013.47;;;-0.89;82.42
37206;BME280;23099;42.636;23.198;2023-03-14T04:23:12;92012.47;;;-0.93;83.05
37206;BME280;23099;42.636;23.198;2023-03-14T04:25:39;92001.00;;;-0.97;82.78
37206;BME280;23099;42.636;23.198;2023-03-14T04:28:05;92000.50;;;-0.99;82.16
37206;BME280;23099;42.636;23.198;2023-03-14T04:30:32;91992.91;;;-1.14;82.34
37206;BME280;23099;42.636;23.198;2023-03-14T04:32:59;91994.56;;;-1.18;83.26
37206;BME280;23099;42.636;23.198;2023-03-14T04:35:25;91990.38;;;-1.19;84.31
37206;BME280;23099;42.636;23.198;2023-03-14T04:37:52;91985.03;;;-1.14;84.25
37206;BME280;23099;42.636;23.198;2023-03-14T04:40:20;91983.41;;;-1.10;84.91
37206;BME280;23099;42.636;23.198;2023-03-14T04:42:47;91983.59;;;-1.07;85.32
37206;BME280;23099;42.636;23.198;2023-03-14T04:45:13;91973.50;;;-0.99;84.91
37206;BME280;23099;42.636;23.198;2023-03-14T04:47:40;91978.94;;;-0.96;84.80
37206;BME280;23099;42.636;23.198;2023-03-14T04:50:08;91972.16;;;-0.83;84.46
37206;BME280;23099;42.636;23.198;2023-03-14T04:52:34;91967.00;;;-0.88;83.78
37206;BME280;23099;42.636;23.198;2023-03-14T04:55:01;91961.94;;;-0.85;84.35
37206;BME280;23099;42.636;23.198;2023-03-14T04:57:29;91968.25;;;-0.72;84.06
37206;BME280;23099;42.636;23.198;2023-03-14T04:59:56;91970.78;;;-0.67;83.46
37206;BME280;23099;42.636;23.198;2023-03-14T05:02:23;91959.03;;;-0.69;83.31
37206;BME280;23099;42.636;23.198;2023-03-14T05:04:49;91954.66;;;-0.60;83.35
37206;BME280;23099;42.636;23.198;2023-03-14T05:07:16;91963.03;;;-0.58;84.12
37206;BME280;23099;42.636;23.198;2023-03-14T05:09:42;91962.34;;;-0.50;83.47
37206;BME280;23099;42.636;23.198;2023-03-14T05:12:09;91961.75;;;-0.47;83.50
37206;BME280;23099;42.636;23.198;2023-03-14T05:14:37;91966.31;;;-0.39;83.60
37206;BME280;23099;42.636;23.198;2023-03-14T05:17:04;91964.25;;;-0.42;83.17
37206;BME280;23099;42.636;23.198;2023-03-14T05:19:31;91966.03;;;-0.51;82.34
37206;BME280;23099;42.636;23.198;2023-03-14T05:21:58;91965.06;;;-0.55;82.98
37206;BME280;23099;42.636;23.198;2023-03-14T05:24:24;91960.28;;;-0.53;82.94
37206;BME280;23099;42.636;23.198;2023-03-14T05:26:51;91960.22;;;-0.62;82.63
37206;BME280;23099;42.636;23.198;2023-03-14T05:29:18;91963.03;;;-0.58;83.81
37206;BME280;23099;42.636;23.198;2023-03-14T05:31:46;91961.28;;;-0.49;83.62
37206;BME280;23099;42.636;23.198;2023-03-14T05:34:12;91958.16;;;-0.51;82.81
37206;BME280;23099;42.636;23.198;2023-03-14T05:36:39;91953.47;;;-0.54;82.83
37206;BME280;23099;42.636;23.198;2023-03-14T05:39:06;91947.75;;;-0.56;83.27
37206;BME280;23099;42.636;23.198;2023-03-14T05:41:32;91962.81;;;-0.48;82.75
37206;BME280;23099;42.636;23.198;2023-03-14T05:43:59;91956.38;;;-0.42;82.78
37206;BME280;23099;42.636;23.198;2023-03-14T05:46:26;91957.06;;;-0.37;83.60
37206;BME280;23099;42.636;23.198;2023-03-14T05:48:54;91954.06;;;-0.30;82.45
37206;BME280;23099;42.636;23.198;2023-03-14T05:51:20;91961.53;;;-0.23;83.11
37206;BME280;23099;42.636;23.198;2023-03-14T05:53:47;91960.66;;;-0.19;82.75
37206;BME280;23099;42.636;23.198;2023-03-14T05:56:14;91941.97;;;-0.17;82.58
37206;BME280;23099;42.636;23.198;2023-03-14T05:58:40;91957.31;;;-0.11;82.39
37206;BME280;23099;42.636;23.198;2023-03-14T06:01:07;91964.38;;;0.03;81.85
37206;BME280;23099;42.636;23.198;2023-03-14T06:03:34;91963.00;;;0.05;81.20
37206;BME280;23099;42.636;23.198;2023-03-14T06:06:03;91951.97;;;0.17;82.54
37206;BME280;23099;42.636;23.198;2023-03-14T06:08:29;91950.97;;;0.26;81.89
37206;BME280;23099;42.636;23.198;2023-03-14T06:10:56;91933.94;;;0.24;80.72
37206;BME280;23099;42.636;23.198;2023-03-14T06:13:23;91953.56;;;0.40;81.93
37206;BME280;23099;42.636;23.198;2023-03-14T06:15:50;91953.13;;;0.47;81.98
37206;BME280;23099;42.636;23.198;2023-03-14T06:18:17;91950.56;;;0.55;80.97
37206;BME280;23099;42.636;23.198;2023-03-14T06:20:43;91952.81;;;0.70;80.86
37206;BME280;23099;42.636;23.198;2023-03-14T06:23:11;91952.28;;;0.82;80.22
37206;BME280;23099;42.636;23.198;2023-03-14T06:25:38;91951.59;;;0.99;78.86
37206;BME280;23099;42.636;23.198;2023-03-14T06:28:05;91953.94;;;1.09;76.16
37206;BME280;23099;42.636;23.198;2023-03-14T06:30:31;91956.38;;;1.28;75.75
37206;BME280;23099;42.636;23.198;2023-03-14T06:32:58;91959.97;;;1.40;73.81
37206;BME280;23099;42.636;23.198;2023-03-14T06:35:25;91955.38;;;1.55;70.93
37206;BME280;23099;42.636;23.198;2023-03-14T06:37:51;91950.94;;;1.72;72.26
37206;BME280;23099;42.636;23.198;2023-03-14T06:40:20;91946.91;;;1.84;70.57
37206;BME280;23099;42.636;23.198;2023-03-14T06:42:46;91941.81;;;1.87;69.85
37206;BME280;23099;42.636;23.198;2023-03-14T06:45:14;91938.69;;;1.94;69.46
37206;BME280;23099;42.636;23.198;2023-03-14T06:47:40;91934.06;;;1.99;69.74
37206;BME280;23099;42.636;23.198;2023-03-14T06:50:09;91934.06;;;2.17;69.18
37206;BME280;23099;42.636;23.198;2023-03-14T06:52:36;91935.00;;;2.29;66.91
37206;BME280;23099;42.636;23.198;2023-03-14T06:55:07;91934.22;;;2.37;66.41
37206;BME280;23099;42.636;23.198;2023-03-14T06:57:35;91931.28;;;2.39;65.37
37206;BME280;23099;42.636;23.198;2023-03-14T07:00:02;91927.41;;;2.45;65.08
37206;BME280;23099;42.636;23.198;2023-03-14T07:02:29;91923.03;;;2.49;65.87
37206;BME280;23099;42.636;23.198;2023-03-14T07:04:56;91916.34;;;2.60;66.27
37206;BME280;23099;42.636;23.198;2023-03-14T07:07:22;91921.47;;;2.65;65.00
37206;BME280;23099;42.636;23.198;2023-03-14T07:09:49;91915.75;;;2.46;65.83
37206;BME280;23099;42.636;23.198;2023-03-14T07:12:16;91927.69;;;2.52;65.87
37206;BME280;23099;42.636;23.198;2023-03-14T07:14:44;91925.38;;;2.51;65.76
37206;BME280;23099;42.636;23.198;2023-03-14T07:17:10;91926.63;;;2.53;66.32
37206;BME280;23099;42.636;23.198;2023-03-14T07:19:37;91930.19;;;2.57;66.25
37206;BME280;23099;42.636;23.198;2023-03-14T07:22:04;91927.22;;;2.67;65.06
37206;BME280;23099;42.636;23.198;2023-03-14T07:24:31;91921.91;;;2.84;66.15
37206;BME280;23099;42.636;23.198;2023-03-14T07:26:58;91923.84;;;3.05;65.90
37206;BME280;23099;42.636;23.198;2023-03-14T07:29:24;91914.00;;;3.31;65.34
37206;BME280;23099;42.636;23.198;2023-03-14T07:31:52;91909.16;;;3.63;65.44
37206;BME280;23099;42.636;23.198;2023-03-14T07:34:19;91901.66;;;3.94;62.59
37206;BME280;23099;42.636;23.198;2023-03-14T07:36:46;91904.91;;;4.20;62.97
37206;BME280;23099;42.636;23.198;2023-03-14T07:39:13;91893.34;;;4.46;61.35
37206;BME280;23099;42.636;23.198;2023-03-14T07:41:39;91895.66;;;4.80;60.63
37206;BME280;23099;42.636;23.198;2023-03-14T07:44:06;91899.13;;;5.05;57.59
37206;BME280;23099;42.636;23.198;2023-03-14T07:46:33;91897.66;;;5.28;56.68
37206;BME280;23099;42.636;23.198;2023-03-14T07:49:01;91897.13;;;5.59;56.39
37206;BME280;23099;42.636;23.198;2023-03-14T07:51:28;91889.16;;;5.84;54.60
37206;BME280;23099;42.636;23.198;2023-03-14T07:53:54;91886.63;;;5.99;53.99
37206;BME280;23099;42.636;23.198;2023-03-14T07:56:21;91886.81;;;6.07;54.54
37206;BME280;23099;42.636;23.198;2023-03-14T07:58:48;91889.16;;;6.36;54.48
37206;BME280;23099;42.636;23.198;2023-03-14T08:01:14;91885.34;;;6.61;53.30
37206;BME280;23099;42.636;23.198;2023-03-14T08:03:41;91886.50;;;6.76;52.85
37206;BME280;23099;42.636;23.198;2023-03-14T08:06:09;91880.09;;;6.93;50.54
37206;BME280;23099;42.636;23.198;2023-03-14T08:08:36;91886.75;;;7.15;50.07
37206;BME280;23099;42.636;23.198;2023-03-14T08:11:04;91887.19;;;7.17;49.46
37206;BME280;23099;42.636;23.198;2023-03-14T08:13:31;91877.47;;;7.24;49.14
37206;BME280;23099;42.636;23.198;2023-03-14T08:15:58;91886.59;;;7.39;48.25
37206;BME280;23099;42.636;23.198;2023-03-14T08:18:25;91876.19;;;7.65;47.95
37206;BME280;23099;42.636;23.198;2023-03-14T08:20:51;91879.25;;;7.83;48.13
37206;BME280;23099;42.636;23.198;2023-03-14T08:23:19;91880.66;;;8.12;46.91
37206;BME280;23099;42.636;23.198;2023-03-14T08:25:48;91879.66;;;8.01;46.34
37206;BME280;23099;42.636;23.198;2023-03-14T08:28:15;91879.72;;;8.20;47.20
37206;BME280;23099;42.636;23.198;2023-03-14T08:30:42;91876.84;;;8.29;46.28
37206;BME280;23099;42.636;23.198;2023-03-14T08:33:08;91879.09;;;8.27;46.50
37206;BME280;23099;42.636;23.198;2023-03-14T08:35:37;91858.97;;;8.29;46.77
37206;BME280;23099;42.636;23.198;2023-03-14T08:38:04;91864.50;;;8.56;45.93
37206;BME280;23099;42.636;23.198;2023-03-14T08:40:32;91864.97;;;8.80;45.99
37206;BME280;23099;42.636;23.198;2023-03-14T08:42:58;91862.00;;;9.05;45.37
37206;BME280;23099;42.636;23.198;2023-03-14T08:45:25;91858.22;;;9.06;44.06
37206;BME280;23099;42.636;23.198;2023-03-14T08:47:52;91863.72;;;9.16;44.77
37206;BME280;23099;42.636;23.198;2023-03-14T08:50:19;91857.59;;;9.35;43.13
37206;BME280;23099;42.636;23.198;2023-03-14T08:52:45;91850.94;;;9.48;43.67
37206;BME280;23099;42.636;23.198;2023-03-14T08:55:14;91840.25;;;9.71;44.32
37206;BME280;23099;42.636;23.198;2023-03-14T08:57:42;91837.63;;;9.75;42.62
37206;BME280;23099;42.636;23.198;2023-03-14T09:00:09;91830.97;;;9.88;42.27
37206;BME280;23099;42.636;23.198;2023-03-14T09:02:39;91830.59;;;10.16;42.71
37206;BME280;23099;42.636;23.198;2023-03-14T09:05:07;91816.69;;;10.30;42.46
37206;BME280;23099;42.636;23.198;2023-03-14T09:07:34;91820.25;;;10.41;42.49
37206;BME280;23099;42.636;23.198;2023-03-14T09:10:00;91810.59;;;10.62;41.99
37206;BME280;23099;42.636;23.198;2023-03-14T09:12:27;91804.28;;;10.78;41.60
37206;BME280;23099;42.636;23.198;2023-03-14T09:14:55;91805.56;;;10.91;40.66
37206;BME280;23099;42.636;23.198;2023-03-14T09:17:22;91792.41;;;10.75;40.58
37206;BME280;23099;42.636;23.198;2023-03-14T09:19:49;91793.13;;;10.72;41.41
37206;BME280;23099;42.636;23.198;2023-03-14T09:22:15;91790.41;;;10.69;40.57
37206;BME280;23099;42.636;23.198;2023-03-14T09:24:42;91788.84;;;10.64;41.03
37206;BME280;23099;42.636;23.198;2023-03-14T09:27:09;91782.22;;;10.51;41.13
37206;BME280;23099;42.636;23.198;2023-03-14T09:29:35;91789.38;;;10.43;40.88
37206;BME280;23099;42.636;23.198;2023-03-14T09:32:03;91776.41;;;10.45;41.01
37206;BME280;23099;42.636;23.198;2023-03-14T09:34:30;91785.88;;;10.39;40.41
37206;BME280;23099;42.636;23.198;2023-03-14T09:36:57;91770.38;;;10.18;40.71
37206;BME280;23099;42.636;23.198;2023-03-14T09:39:23;91776.91;;;10.24;40.61
37206;BME280;23099;42.636;23.198;2023-03-14T09:41:52;91777.78;;;10.32;40.04
37206;BME280;23099;42.636;23.198;2023-03-14T09:44:24;91764.59;;;10.16;39.98
37206;BME280;23099;42.636;23.198;2023-03-14T09:46:53;91756.91;;;10.41;40.60
37206;BME280;23099;42.636;23.198;2023-03-14T09:49:27;91752.13;;;10.57;39.64
37206;BME280;23099;42.636;23.198;2023-03-14T09:51:55;91752.44;;;10.89;41.44
37206;BME280;23099;42.636;23.198;2023-03-14T09:54:31;91743.09;;;11.13;39.71
37206;BME280;23099;42.636;23.198;2023-03-14T09:57:00;91742.91;;;11.32;38.75
37206;BME280;23099;42.636;23.198;2023-03-14T09:59:28;91729.34;;;11.62;39.55
37206;BME280;23099;42.636;23.198;2023-03-14T10:01:56;91721.88;;;11.89;38.91
37206;BME280;23099;42.636;23.198;2023-03-14T10:04:27;91731.50;;;12.01;38.11
37206;BME280;23099;42.636;23.198;2023-03-14T10:06:55;91731.56;;;12.12;36.62
37206;BME280;23099;42.636;23.198;2023-03-14T10:09:23;91722.06;;;12.28;37.16
37206;BME280;23099;42.636;23.198;2023-03-14T10:11:52;91717.91;;;12.38;36.32
37206;BME280;23099;42.636;23.198;2023-03-14T10:14:29;91715.19;;;12.31;37.63
37206;BME280;23099;42.636;23.198;2023-03-14T10:17:04;91711.41;;;12.39;36.42
37206;BME280;23099;42.636;23.198;2023-03-14T10:19:33;91699.91;;;12.42;37.45
37206;BME280;23099;42.636;23.198;2023-03-14T10:22:01;91693.44;;;12.61;36.02
37206;BME280;23099;42.636;23.198;2023-03-14T10:24:30;91685.44;;;12.86;35.21
37206;BME280;23099;42.636;23.198;2023-03-14T10:26:58;91675.50;;;13.04;35.39
37206;BME280;23099;42.636;23.198;2023-03-14T10:29:26;91676.69;;;13.24;35.54
37206;BME280;23099;42.636;23.198;2023-03-14T10:31:54;91671.28;;;13.49;35.05
37206;BME280;23099;42.636;23.198;2023-03-14T10:34:22;91656.66;;;13.71;34.49
37206;BME280;23099;42.636;23.198;2023-03-14T10:36:54;91651.25;;;13.89;34.52
37206;BME280;23099;42.636;23.198;2023-03-14T10:39:25;91644.34;;;13.92;33.75
37206;BME280;23099;42.636;23.198;2023-03-14T10:41:54;91635.56;;;13.77;35.10
37206;BME280;23099;42.636;23.198;2023-03-14T10:44:25;91640.88;;;13.91;33.92
37206;BME280;23099;42.636;23.198;2023-03-14T10:46:56;91630.09;;;14.02;34.67
37206;BME280;23099;42.636;23.198;2023-03-14T10:49:28;91628.09;;;14.27;33.92
37206;BME280;23099;42.636;23.198;2023-03-14T10:52:01;91625.47;;;14.13;33.85
37206;BME280;23099;42.636;23.198;2023-03-14T10:54:29;91625.06;;;14.14;33.07
37206;BME280;23099;42.636;23.198;2023-03-14T10:56:57;91623.50;;;14.24;33.51
37206;BME280;23099;42.636;23.198;2023-03-14T10:59:24;91608.84;;;14.29;33.55
37206;BME280;23099;42.636;23.198;2023-03-14T11:01:55;91615.69;;;14.51;34.08
37206;BME280;23099;42.636;23.198;2023-03-14T11:04:40;91610.00;;;14.42;32.43
37206;BME280;23099;42.636;23.198;2023-03-14T11:07:16;91600.00;;;14.35;33.55
37206;BME280;23099;42.636;23.198;2023-03-14T11:09:52;91600.72;;;14.50;32.75
37206;BME280;23099;42.636;23.198;2023-03-14T11:12:41;91575.50;;;14.85;33.16
37206;BME280;23099;42.636;23.198;2023-03-14T11:15:18;91571.28;;;14.80;35.40
37206;BME280;23099;42.636;23.198;2023-03-14T11:17:55;91576.75;;;15.18;32.95
37206;BME280;23099;42.636;23.198;2023-03-14T11:20:33;91556.91;;;15.42;31.87
37206;BME280;23099;42.636;23.198;2023-03-14T11:23:08;91556.22;;;15.31;30.91
37206;BME280;23099;42.636;23.198;2023-03-14T11:25:42;91554.63;;;15.37;31.86
37206;BME280;23099;42.636;23.198;2023-03-14T11:28:17;91554.38;;;15.66;31.07
37206;BME280;23099;42.636;23.198;2023-03-14T11:30:51;91545.13;;;15.29;30.99
37206;BME280;23099;42.636;23.198;2023-03-14T11:33:22;91540.22;;;15.17;31.23
37206;BME280;23099;42.636;23.198;2023-03-14T11:35:55;91532.69;;;15.39;31.30
37206;BME280;23099;42.636;23.198;2023-03-14T11:38:33;91529.34;;;15.65;32.69
37206;BME280;23099;42.636;23.198;2023-03-14T11:41:01;91530.88;;;16.00;31.59
37206;BME280;23099;42.636;23.198;2023-03-14T11:43:30;91518.97;;;16.24;30.58
37206;BME280;23099;42.636;23.198;2023-03-14T11:46:04;91524.16;;;16.39;29.34
37206;BME280;23099;42.636;23.198;2023-03-14T11:48:38;91517.69;;;15.75;28.13
37206;BME280;23099;42.636;23.198;2023-03-14T11:51:10;91514.09;;;15.85;27.34
37206;BME280;23099;42.636;23.198;2023-03-14T11:53:47;91509.25;;;16.31;27.56
37206;BME280;23099;42.636;23.198;2023-03-14T11:56:22;91512.00;;;16.54;27.60
37206;BME280;23099;42.636;23.198;2023-03-14T11:58:55;91500.94;;;16.45;24.54
37206;BME280;23099;42.636;23.198;2023-03-14T12:01:29;91504.97;;;16.87;25.07
37206;BME280;23099;42.636;23.198;2023-03-14T12:04:05;91495.47;;;17.22;25.17
37206;BME280;23099;42.636;23.198;2023-03-14T12:06:39;91495.59;;;17.58;24.31
37206;BME280;23099;42.636;23.198;2023-03-14T12:09:10;91489.66;;;17.23;26.43
37206;BME280;23099;42.636;23.198;2023-03-14T12:11:40;91481.22;;;17.61;23.83
37206;BME280;23099;42.636;23.198;2023-03-14T12:14:22;91475.09;;;17.80;22.39
37206;BME280;23099;42.636;23.198;2023-03-14T12:16:53;91477.63;;;17.48;27.28
37206;BME280;23099;42.636;23.198;2023-03-14T12:19:28;91466.00;;;17.31;25.40
37206;BME280;23099;42.636;23.198;2023-03-14T12:21:58;91461.69;;;17.53;22.15
37206;BME280;23099;42.636;23.198;2023-03-14T12:24:30;91465.50;;;17.36;27.34
37206;BME280;23099;42.636;23.198;2023-03-14T12:26:59;91451.00;;;16.60;28.77
37206;BME280;23099;42.636;23.198;2023-03-14T12:29:26;91445.16;;;16.15;29.54
37206;BME280;23099;42.636;23.198;2023-03-14T12:32:20;91454.34;;;16.17;29.27
37206;BME280;23099;42.636;23.198;2023-03-14T12:34:48;91446.16;;;15.71;28.98
37206;BME280;23099;42.636;23.198;2023-03-14T12:37:22;91443.00;;;16.03;29.24
37206;BME280;23099;42.636;23.198;2023-03-14T12:40:01;91437.91;;;16.35;30.05
37206;BME280;23099;42.636;23.198;2023-03-14T12:42:40;91433.56;;;16.68;30.37
37206;BME280;23099;42.636;23.198;2023-03-14T12:45:23;91422.63;;;16.99;29.57
37206;BME280;23099;42.636;23.198;2023-03-14T12:47:53;91408.56;;;17.07;29.29
37206;BME280;23099;42.636;23.198;2023-03-14T12:50:31;91400.13;;;17.25;30.80
37206;BME280;23099;42.636;23.198;2023-03-14T12:56:09;91396.84;;;17.73;29.60
37206;BME280;23099;42.636;23.198;2023-03-14T12:58:39;91390.63;;;17.92;28.15
37206;BME280;23099;42.636;23.198;2023-03-14T13:01:18;91377.03;;;17.96;28.71
37206;BME280;23099;42.636;23.198;2023-03-14T13:03:47;91382.28;;;18.03;27.71
37206;BME280;23099;42.636;23.198;2023-03-14T13:06:46;91388.75;;;17.89;28.17